Time;durP1;ratioP1;P1;durP2;ratioP2;P2;SDS_P1;SDS_P2;PMS_P1;PMS_P2;Temp;Humidity;BMP_temperature;BMP_pressure;BME280_temperature;BME280_humidity;BME280_pressure;Samples;Min_cycle;Max_cycle;Signal;HPM_P1;HPM_P2
2023/09/10 00:02:03;;;;;;;;;;;;;;;14.21;68.48;95509.03;5137392;27;1024;-56
2023/09/10 00:04:29;;;;;;;;;;;;;;;13.95;69.58;95515.50;5137590;27;957;-56
2023/09/10 00:06:55;;;;;;;;;;;;;;;13.93;69.20;95522.06;5137598;27;1030;-56
2023/09/10 00:09:21;;;;;;;;;;;;;;;13.83;68.93;95520.41;5137277;27;1037;-56
2023/09/10 00:11:47;;;;;;;;;;;;;;;14.04;68.45;95521.69;5137424;27;970;-56
2023/09/10 00:14:13;;;;;;;;;;;;;;;14.06;68.46;95525.88;5136706;27;983;-56
2023/09/10 00:16:39;;;;;;;;;;;;;;;13.94;68.86;95523.72;5137314;27;1905;-56
2023/09/10 00:19:05;;;;;;;;;;;;;;;13.91;68.67;95529.47;5137157;27;1056;-56
2023/09/10 00:21:31;;;;;;;;;;;;;;;13.92;68.90;95525.75;5137061;27;991;-56
2023/09/10 00:23:57;;;;;;;;;;;;;;;14.00;68.38;95525.72;5137094;27;999;-56
2023/09/10 00:26:24;;;;;;;;;;;;;;;13.84;69.67;95529.31;5137097;27;1057;-56
2023/09/10 00:28:51;;;;;;;;;;;;;;;13.75;69.61;95525.78;5136890;27;1023;-56
2023/09/10 00:31:17;;;;;;;;;;;;;;;13.62;70.29;95523.66;5136725;27;1098;-56
2023/09/10 00:33:43;;;;;;;;;;;;;;;13.74;69.85;95525.97;5136788;27;1040;-56
2023/09/10 00:36:09;;;;;;;;;;;;;;;13.91;69.16;95519.53;5136768;27;1984;-56
2023/09/10 00:38:35;;;;;;;;;;;;;;;13.59;69.97;95523.16;5137000;27;1019;-56
2023/09/10 00:41:04;;;;;;;;;;;;;;;13.18;71.55;95523.97;5136588;27;1010;-56
2023/09/10 00:43:30;;;;;;;;;;;;;;;13.07;71.92;95527.84;5136508;27;1047;-56
2023/09/10 00:45:56;;;;;;;;;;;;;;;13.21;71.97;95525.50;5118287;27;1056;-56
2023/09/10 00:48:22;;;;;;;;;;;;;;;13.28;71.63;95530.03;5136543;27;1128;-56
2023/09/10 00:50:48;;;;;;;;;;;;;;;13.26;71.47;95526.69;5136538;27;1027;-56
2023/09/10 00:53:14;;;;;;;;;;;;;;;13.44;70.99;95531.88;5133265;27;1091;-57
2023/09/10 00:55:40;;;;;;;;;;;;;;;13.38;71.06;95537.13;5115907;28;1985;-55
2023/09/10 00:58:07;;;;;;;;;;;;;;;13.33;71.05;95536.78;5111363;28;1389;-56
2023/09/10 01:00:33;;;;;;;;;;;;;;;13.27;71.58;95530.19;5095779;28;989;-56
2023/09/10 01:02:59;;;;;;;;;;;;;;;13.17;71.38;95526.84;5095237;28;1029;-56
2023/09/10 01:05:25;;;;;;;;;;;;;;;13.16;71.86;95523.31;5095096;28;1068;-56
2023/09/10 01:07:51;;;;;;;;;;;;;;;12.89;72.87;95527.16;5095080;28;1119;-56
2023/09/10 01:10:17;;;;;;;;;;;;;;;12.96;72.38;95530.03;5095235;28;1008;-56
2023/09/10 01:12:55;;;;;;;;;;;;;;;13.00;72.61;95529.53;5095430;28;985;-56
2023/09/10 01:15:24;;;;;;;;;;;;;;;12.97;72.11;95527.16;5094871;28;1910;-56
2023/09/10 01:18:02;;;;;;;;;;;;;;;12.97;72.10;95523.66;5094898;28;1053;-56
2023/09/10 01:20:47;;;;;;;;;;;;;;;12.99;71.87;95524.31;5094891;28;1045;-56
2023/09/10 01:23:31;;;;;;;;;;;;;;;12.94;71.94;95522.16;5095021;28;1053;-56
2023/09/10 01:25:57;;;;;;;;;;;;;;;12.64;73.48;95531.66;5094151;28;974;-56
2023/09/10 01:28:23;;;;;;;;;;;;;;;12.62;72.21;95518.41;5094829;28;969;-56
2023/09/10 01:30:49;;;;;;;;;;;;;;;12.58;73.33;95527.78;5094958;28;1055;-56
2023/09/10 01:33:15;;;;;;;;;;;;;;;12.81;72.07;95527.16;5094810;28;1028;-56
2023/09/10 01:35:47;;;;;;;;;;;;;;;12.92;71.69;95525.97;5094552;28;1906;-56
2023/09/10 01:38:28;;;;;;;;;;;;;;;12.89;72.14;95535.22;5094518;28;1053;-56
2023/09/10 01:41:02;;;;;;;;;;;;;;;12.85;72.64;95536.56;5094810;28;969;-56
2023/09/10 01:43:29;;;;;;;;;;;;;;;12.82;73.06;95534.19;5094430;28;1037;-56
2023/09/10 01:45:55;;;;;;;;;;;;;;;12.91;72.82;95521.63;5094344;28;1103;-56
2023/09/10 01:48:23;;;;;;;;;;;;;;;12.57;73.53;95527.94;5094302;28;918;-55
2023/09/10 01:50:49;;;;;;;;;;;;;;;12.25;75.05;95529.53;5094496;28;957;-56
2023/09/10 01:53:16;;;;;;;;;;;;;;;12.26;75.15;95528.53;5097310;28;1060;-57
2023/09/10 01:55:43;;;;;;;;;;;;;;;12.47;74.05;95523.56;5114618;28;1988;-56
2023/09/10 01:58:12;;;;;;;;;;;;;;;12.38;73.85;95527.22;5119411;27;1252;-56
2023/09/10 02:00:39;;;;;;;;;;;;;;;12.09;75.36;95531.16;5135359;27;1047;-56
2023/09/10 02:03:05;;;;;;;;;;;;;;;12.18;74.23;95540.06;5135248;27;1044;-56
2023/09/10 02:05:31;;;;;;;;;;;;;;;12.23;74.50;95537.72;5134903;27;1092;-56
2023/09/10 02:07:57;;;;;;;;;;;;;;;12.42;73.65;95531.25;5134907;27;1048;-56
2023/09/10 02:10:23;;;;;;;;;;;;;;;12.52;72.93;95533.81;5134930;27;1086;-55
2023/09/10 02:12:49;;;;;;;;;;;;;;;12.47;73.19;95541.50;5134855;27;952;-56
2023/09/10 02:15:19;;;;;;;;;;;;;;;12.42;73.96;95538.47;5135079;27;1115;-56
2023/09/10 02:17:44;;;;;;;;;;;;;;;12.50;73.19;95542.03;5135051;27;964;-55
2023/09/10 02:20:11;;;;;;;;;;;;;;;12.29;73.79;95542.47;5134794;27;966;-56
2023/09/10 02:22:38;;;;;;;;;;;;;;;12.16;74.81;95549.25;5135048;27;966;-56
2023/09/10 02:25:04;;;;;;;;;;;;;;;12.12;75.21;95535.34;5134965;27;1032;-56
2023/09/10 02:27:31;;;;;;;;;;;;;;;11.84;75.70;95542.72;5134514;27;1032;-56
2023/09/10 02:29:57;;;;;;;;;;;;;;;11.86;76.26;95551.44;5134620;27;1020;-56
2023/09/10 02:32:23;;;;;;;;;;;;;;;11.79;76.40;95545.03;5134657;27;1063;-56
2023/09/10 02:34:51;;;;;;;;;;;;;;;11.52;76.65;95546.88;5134749;27;968;-56
2023/09/10 02:37:17;;;;;;;;;;;;;;;11.81;75.99;95538.50;5134437;27;1909;-56
2023/09/10 02:39:43;;;;;;;;;;;;;;;11.65;76.51;95536.59;5134475;27;1068;-55
2023/09/10 02:42:09;;;;;;;;;;;;;;;11.70;76.60;95536.09;5134327;27;1092;-56
2023/09/10 02:44:35;;;;;;;;;;;;;;;11.90;75.81;95537.59;5134398;27;1086;-56
2023/09/10 02:47:01;;;;;;;;;;;;;;;11.94;75.33;95539.97;5134688;27;1059;-56
2023/09/10 02:49:27;;;;;;;;;;;;;;;11.80;75.42;95539.53;5134572;27;949;-56
2023/09/10 02:51:54;;;;;;;;;;;;;;;11.66;75.99;95550.81;5134629;27;981;-56
2023/09/10 02:54:20;;;;;;;;;;;;;;;11.50;76.35;95547.03;5122008;28;1079;-55
2023/09/10 02:56:46;;;;;;;;;;;;;;;11.57;76.81;95544.56;5113888;28;1913;-56
2023/09/10 02:59:23;;;;;;;;;;;;;;;11.64;76.71;95542.09;5099734;28;1228;-56
2023/09/10 03:01:49;;;;;;;;;;;;;;;11.63;76.60;95548.44;5093348;28;1123;-56
2023/09/10 03:04:15;;;;;;;;;;;;;;;11.74;76.08;95548.19;5093376;28;1125;-56
2023/09/10 03:06:45;;;;;;;;;;;;;;;11.86;75.57;95548.78;5093353;28;972;-56
2023/09/10 03:09:14;;;;;;;;;;;;;;;11.71;75.79;95557.38;5093211;28;1059;-56
2023/09/10 03:11:40;;;;;;;;;;;;;;;11.51;76.48;95551.41;5093457;28;972;-56
2023/09/10 03:14:06;;;;;;;;;;;;;;;11.47;76.72;95557.22;5093487;28;950;-56
2023/09/10 03:16:38;;;;;;;;;;;;;;;11.90;74.92;95559.03;5093324;28;1984;-56
2023/09/10 03:19:04;;;;;;;;;;;;;;;12.17;73.65;95565.19;5093296;28;1028;-56
2023/09/10 03:21:30;;;;;;;;;;;;;;;11.95;74.68;95553.22;5093611;28;1015;-56
2023/09/10 03:23:56;;;;;;;;;;;;;;;11.60;75.78;95565.69;5093355;28;1037;-56
2023/09/10 03:26:23;;;;;;;;;;;;;;;11.69;75.80;95563.91;5093321;28;1045;-56
2023/09/10 03:28:49;;;;;;;;;;;;;;;11.47;76.11;95565.25;5093388;28;1052;-56
2023/09/10 03:31:15;;;;;;;;;;;;;;;11.55;76.53;95565.28;5093237;28;966;-56
2023/09/10 03:33:44;;;;;;;;;;;;;;;11.64;75.36;95568.88;5093175;28;960;-57
2023/09/10 03:36:10;;;;;;;;;;;;;;;11.46;76.34;95559.06;5092886;28;1996;-56
2023/09/10 03:38:36;;;;;;;;;;;;;;;11.45;75.87;95557.38;5093284;28;960;-56
2023/09/10 03:41:02;;;;;;;;;;;;;;;11.39;75.93;95558.00;5092938;28;1040;-56
2023/09/10 03:43:28;;;;;;;;;;;;;;;11.36;76.32;95558.31;5093106;28;1143;-57
2023/09/10 03:45:54;;;;;;;;;;;;;;;11.58;76.19;95556.97;5075125;28;968;-57
2023/09/10 03:48:20;;;;;;;;;;;;;;;11.43;76.43;95558.53;5093129;28;973;-56
2023/09/10 03:50:46;;;;;;;;;;;;;;;11.16;77.15;95562.19;5095952;28;937;-57
2023/09/10 03:53:12;;;;;;;;;;;;;;;11.11;77.62;95566.13;5098831;28;1112;-57
2023/09/10 03:55:39;;;;;;;;;;;;;;;11.33;77.33;95564.81;5117158;28;2006;-57
2023/09/10 03:58:05;;;;;;;;;;;;;;;11.39;76.91;95568.72;5121279;27;1256;-56
2023/09/10 04:00:32;;;;;;;;;;;;;;;11.18;77.39;95570.91;5137576;27;945;-55
2023/09/10 04:02:58;;;;;;;;;;;;;;;11.30;77.51;95567.78;5137544;27;1057;-56
2023/09/10 04:05:24;;;;;;;;;;;;;;;11.27;77.33;95575.31;5137409;27;995;-56
2023/09/10 04:07:50;;;;;;;;;;;;;;;11.30;77.37;95570.47;5137190;27;1087;-56
2023/09/10 04:10:16;;;;;;;;;;;;;;;11.36;76.83;95569.00;5137487;27;977;-56
2023/09/10 04:12:42;;;;;;;;;;;;;;;11.23;77.74;95579.28;5137514;27;1052;-56
2023/09/10 04:15:08;;;;;;;;;;;;;;;11.24;77.59;95576.44;5137352;27;1018;-56
2023/09/10 04:17:34;;;;;;;;;;;;;;;11.02;78.28;95588.50;5137292;27;1905;-56
2023/09/10 04:20:00;;;;;;;;;;;;;;;11.17;77.92;95587.94;5137050;27;1118;-56
2023/09/10 04:22:26;;;;;;;;;;;;;;;11.34;76.88;95587.06;5136946;27;1028;-56
2023/09/10 04:24:52;;;;;;;;;;;;;;;11.09;78.29;95584.19;5136958;27;1052;-56
2023/09/10 04:27:18;;;;;;;;;;;;;;;10.99;78.07;95591.47;5136846;27;1036;-55
2023/09/10 04:29:44;;;;;;;;;;;;;;;11.19;77.64;95580.59;5136896;27;1094;-56
2023/09/10 04:32:10;;;;;;;;;;;;;;;11.55;75.91;95585.88;5136701;27;1238;-57
2023/09/10 04:34:36;;;;;;;;;;;;;;;11.30;77.44;95591.88;5136808;27;1875;-57
2023/09/10 04:37:04;;;;;;;;;;;;;;;11.47;76.41;95592.03;5136907;27;1984;-55
2023/09/10 04:39:30;;;;;;;;;;;;;;;11.81;75.76;95591.25;5136904;27;1014;-56
2023/09/10 04:41:56;;;;;;;;;;;;;;;11.92;75.60;95596.38;5136931;27;1006;-56
2023/09/10 04:44:22;;;;;;;;;;;;;;;12.12;75.43;95594.31;5136662;27;1007;-57
2023/09/10 04:46:48;;;;;;;;;;;;;;;12.29;75.16;95590.72;5136884;27;1012;-57
2023/09/10 04:49:14;;;;;;;;;;;;;;;12.60;73.29;95586.66;5136526;27;1063;-56
2023/09/10 04:51:40;;;;;;;;;;;;;;;12.37;74.49;95589.06;5136377;27;1023;-57
2023/09/10 04:54:06;;;;;;;;;;;;;;;12.29;74.69;95588.03;5118103;27;1242;-57
2023/09/10 04:56:32;;;;;;;;;;;;;;;12.30;75.25;95589.69;5136730;27;1909;-57
2023/09/10 04:58:58;;;;;;;;;;;;;;;12.54;74.96;95588.13;5124424;27;1323;-56
2023/09/10 05:01:24;;;;;;;;;;;;;;;12.74;74.74;95594.03;5115638;28;1012;-57
2023/09/10 05:03:50;;;;;;;;;;;;;;;12.96;73.06;95592.59;5115682;28;969;-57
2023/09/10 05:06:17;;;;;;;;;;;;;;;13.16;73.46;95589.59;5115791;28;1000;-57
2023/09/10 05:08:43;;;;;;;;;;;;;;;13.31;72.08;95589.81;5115748;28;985;-56
2023/09/10 05:11:09;;;;;;;;;;;;;;;13.65;71.26;95600.38;5115714;28;987;-56
2023/09/10 05:13:36;;;;;;;;;;;;;;;14.01;67.54;95600.00;5115587;28;1273;-57
2023/09/10 05:16:02;;;;;;;;;;;;;;;14.28;69.01;95606.81;5115414;28;1997;-58
2023/09/10 05:18:28;;;;;;;;;;;;;;;14.52;68.68;95602.38;5115406;28;1010;-57
2023/09/10 05:20:54;;;;;;;;;;;;;;;14.63;67.80;95608.22;5115537;28;1011;-57
2023/09/10 05:23:23;;;;;;;;;;;;;;;14.61;68.20;95606.72;5115124;28;1076;-57
2023/09/10 05:25:49;;;;;;;;;;;;;;;14.66;68.61;95603.50;5115431;28;972;-57
2023/09/10 05:28:16;;;;;;;;;;;;;;;14.82;66.52;95606.13;5115239;28;1141;-57
2023/09/10 05:30:42;;;;;;;;;;;;;;;15.00;65.77;95614.75;5115119;28;1103;-56
2023/09/10 05:33:09;;;;;;;;;;;;;;;15.14;63.72;95607.78;5114984;28;1088;-56
2023/09/10 05:35:35;;;;;;;;;;;;;;;15.41;61.71;95603.72;5114870;28;1981;-57
2023/09/10 05:38:01;;;;;;;;;;;;;;;15.39;60.81;95602.22;5114844;28;1069;-57
2023/09/10 05:40:27;;;;;;;;;;;;;;;15.73;61.46;95601.81;5115048;28;1019;-57
2023/09/10 05:42:53;;;;;;;;;;;;;;;16.11;59.92;95604.47;5115003;28;1043;-57
2023/09/10 05:45:19;;;;;;;;;;;;;;;16.15;58.62;95603.09;5115010;28;1011;-57
2023/09/10 05:47:45;;;;;;;;;;;;;;;16.26;60.05;95606.34;5115101;28;1015;-57
2023/09/10 05:50:11;;;;;;;;;;;;;;;16.53;56.38;95610.28;5114663;28;976;-57
2023/09/10 05:52:37;;;;;;;;;;;;;;;16.66;57.42;95612.31;5114661;28;1099;-57
2023/09/10 05:55:03;;;;;;;;;;;;;;;16.73;55.25;95619.47;5114441;28;1223;-57
2023/09/10 05:57:29;;;;;;;;;;;;;;;16.73;56.98;95619.47;5096498;28;1913;-57
2023/09/10 05:59:55;;;;;;;;;;;;;;;16.95;54.03;95616.84;5134441;27;1280;-57
2023/09/10 06:02:22;;;;;;;;;;;;;;;17.03;54.08;95624.00;5134992;27;1163;-57
2023/09/10 06:04:48;;;;;;;;;;;;;;;17.22;53.36;95627.97;5135109;27;1048;-57
2023/09/10 06:07:14;;;;;;;;;;;;;;;17.11;56.63;95622.03;5135178;27;979;-57
2023/09/10 06:09:40;;;;;;;;;;;;;;;17.46;54.31;95633.00;5136183;27;2508;-57
2023/09/10 06:12:06;;;;;;;;;;;;;;;17.50;55.73;95638.88;5155327;27;1027;-57
2023/09/10 06:14:34;;;;;;;;;;;;;;;17.59;52.66;95623.38;5155784;27;908;-58
2023/09/10 06:17:01;;;;;;;;;;;;;;;17.88;55.09;95627.81;5155486;27;1897;-57
2023/09/10 06:19:27;;;;;;;;;;;;;;;18.21;53.51;95624.53;5155710;27;1052;-57
2023/09/10 06:21:52;;;;;;;;;;;;;;;18.27;52.25;95629.19;5155676;27;1060;-57
2023/09/10 06:24:18;;;;;;;;;;;;;;;18.47;52.76;95630.13;5155489;27;982;-56
2023/09/10 06:26:45;;;;;;;;;;;;;;;18.63;52.31;95637.13;5155644;27;992;-55
2023/09/10 06:29:11;;;;;;;;;;;;;;;18.79;50.35;95644.06;5155188;27;1016;-58
2023/09/10 06:31:37;;;;;;;;;;;;;;;19.05;48.69;95639.84;5155588;27;1047;-59
2023/09/10 06:34:04;;;;;;;;;;;;;;;19.12;50.06;95632.56;5155479;27;1027;-59
2023/09/10 06:36:31;;;;;;;;;;;;;;;19.25;50.69;95635.31;5155013;27;1984;-59
2023/09/10 06:38:57;;;;;;;;;;;;;;;19.44;49.93;95646.44;5155210;27;1048;-58
2023/09/10 06:41:23;;;;;;;;;;;;;;;19.43;50.10;95637.47;5155374;27;1038;-59
2023/09/10 06:43:49;;;;;;;;;;;;;;;19.84;48.23;95644.69;5155110;27;1020;-59
2023/09/10 06:46:15;;;;;;;;;;;;;;;20.29;46.82;95642.19;5154978;27;1032;-59
2023/09/10 06:48:41;;;;;;;;;;;;;;;20.55;46.86;95640.50;5155044;27;1100;-59
2023/09/10 06:51:07;;;;;;;;;;;;;;;20.73;46.94;95637.13;5155285;27;1003;-58
2023/09/10 06:53:33;;;;;;;;;;;;;;;20.77;46.37;95651.13;5154746;27;1244;-58
2023/09/10 06:55:59;;;;;;;;;;;;;;;20.69;47.75;95637.78;5155125;27;1901;-57
2023/09/10 06:58:25;;;;;;;;;;;;;;;20.76;46.82;95646.75;5147476;27;1255;-57
2023/09/10 07:00:51;;;;;;;;;;;;;;;20.98;47.24;95634.56;5134556;28;988;-57
2023/09/10 07:03:17;;;;;;;;;;;;;;;21.23;47.57;95633.84;5134236;28;1028;-57
2023/09/10 07:05:43;;;;;;;;;;;;;;;21.42;47.39;95638.34;5134155;28;1182;-57
2023/09/10 07:08:13;;;;;;;;;;;;;;;21.56;45.44;95644.56;5134124;28;1028;-57
2023/09/10 07:10:39;;;;;;;;;;;;;;;21.74;43.63;95653.88;5134182;28;1032;-57
2023/09/10 07:13:06;;;;;;;;;;;;;;;22.06;43.49;95648.44;5134142;28;1079;-57
2023/09/10 07:15:32;;;;;;;;;;;;;;;22.08;44.71;95649.88;5134074;28;1906;-57
2023/09/10 07:17:58;;;;;;;;;;;;;;;21.96;44.99;95647.03;5134147;28;1224;-57
2023/09/10 07:20:24;;;;;;;;;;;;;;;22.12;45.50;95639.38;5134121;28;998;-57
2023/09/10 07:22:50;;;;;;;;;;;;;;;22.09;43.30;95642.56;5134319;28;969;-57
2023/09/10 07:25:16;;;;;;;;;;;;;;;22.34;44.02;95643.41;5136558;27;1028;-57
2023/09/10 07:27:42;;;;;;;;;;;;;;;22.44;44.01;95636.63;5138362;27;1030;-57
2023/09/10 07:30:08;;;;;;;;;;;;;;;22.34;43.63;95643.41;5138060;27;1024;-58
2023/09/10 07:32:34;;;;;;;;;;;;;;;22.57;43.89;95631.06;5137925;27;1060;-57
2023/09/10 07:35:00;;;;;;;;;;;;;;;22.51;43.84;95632.78;5138156;27;1007;-56
2023/09/10 07:37:26;;;;;;;;;;;;;;;22.47;43.23;95631.56;5137951;27;1917;-57
2023/09/10 07:39:52;;;;;;;;;;;;;;;22.75;43.28;95635.72;5138037;27;1075;-58
2023/09/10 07:42:18;;;;;;;;;;;;;;;22.86;43.60;95631.38;5137672;27;1261;-55
2023/09/10 07:44:44;;;;;;;;;;;;;;;23.13;42.24;95634.69;5138108;27;970;-55
2023/09/10 07:47:10;;;;;;;;;;;;;;;23.23;42.00;95625.97;5137927;27;957;-56
2023/09/10 07:49:36;;;;;;;;;;;;;;;23.44;41.68;95632.84;5137882;27;977;-55
2023/09/10 07:52:04;;;;;;;;;;;;;;;23.76;41.76;95633.44;5137836;27;1057;-59
2023/09/10 07:54:30;;;;;;;;;;;;;;;24.10;40.92;95625.59;5137263;27;1190;-59
2023/09/10 07:56:56;;;;;;;;;;;;;;;24.21;41.39;95626.69;5137361;27;1996;-57
2023/09/10 07:59:22;;;;;;;;;;;;;;;24.14;41.39;95613.97;5137677;27;1269;-58
2023/09/10 08:01:48;;;;;;;;;;;;;;;24.28;41.75;95619.22;5137445;27;1099;-57
2023/09/10 08:04:14;;;;;;;;;;;;;;;24.25;41.47;95616.97;5137263;27;1032;-57
2023/09/10 08:06:40;;;;;;;;;;;;;;;24.53;40.80;95616.31;5119324;27;958;-57
2023/09/10 08:09:06;;;;;;;;;;;;;;;24.80;40.25;95619.38;5137493;27;1112;-57
2023/09/10 08:11:33;;;;;;;;;;;;;;;25.12;40.48;95627.19;5137506;27;1029;-57
2023/09/10 08:13:59;;;;;;;;;;;;;;;25.30;39.88;95616.09;5137237;27;1110;-56
2023/09/10 08:16:25;;;;;;;;;;;;;;;25.44;39.21;95616.66;5137042;27;1990;-57
2023/09/10 08:18:51;;;;;;;;;;;;;;;25.58;38.16;95616.38;5137028;27;1043;-56
2023/09/10 08:21:17;;;;;;;;;;;;;;;25.72;37.26;95620.44;5137193;27;1099;-56
2023/09/10 08:23:44;;;;;;;;;;;;;;;25.92;37.57;95620.03;5137225;27;961;-56
2023/09/10 08:26:11;;;;;;;;;;;;;;;25.97;36.41;95616.53;5137027;27;1036;-56
2023/09/10 08:28:37;;;;;;;;;;;;;;;26.15;35.46;95621.81;5137002;27;1138;-56
2023/09/10 08:31:04;;;;;;;;;;;;;;;26.31;35.54;95617.41;5137207;27;1026;-55
2023/09/10 08:33:30;;;;;;;;;;;;;;;26.47;36.16;95613.84;5136917;27;1044;-56
2023/09/10 08:35:56;;;;;;;;;;;;;;;26.60;35.75;95609.13;5136483;27;1902;-56
2023/09/10 08:38:22;;;;;;;;;;;;;;;26.59;36.08;95611.03;5136834;27;1063;-56
2023/09/10 08:40:48;;;;;;;;;;;;;;;26.87;35.02;95612.81;5136786;27;969;-56
2023/09/10 08:43:15;;;;;;;;;;;;;;;26.82;34.75;95606.44;5136821;27;970;-57
2023/09/10 08:45:41;;;;;;;;;;;;;;;26.72;35.21;95606.28;5136877;27;1023;-56
2023/09/10 08:48:08;;;;;;;;;;;;;;;26.71;34.79;95601.88;5136341;27;1380;-57
2023/09/10 08:50:34;;;;;;;;;;;;;;;26.81;34.52;95604.78;5136372;27;1036;-56
2023/09/10 08:53:01;;;;;;;;;;;;;;;26.86;34.69;95605.69;5135876;27;1320;-57
2023/09/10 08:55:29;;;;;;;;;;;;;;;26.86;34.38;95597.44;5115960;28;995;-56
2023/09/10 08:57:56;;;;;;;;;;;;;;;26.72;33.80;95598.06;5112882;28;1906;-56
2023/09/10 09:00:23;;;;;;;;;;;;;;;26.87;33.62;95601.00;5095274;28;966;-56
2023/09/10 09:02:49;;;;;;;;;;;;;;;26.84;34.21;95596.88;5095202;28;1960;-56
2023/09/10 09:05:15;;;;;;;;;;;;;;;26.95;33.32;95607.97;5095196;28;1103;-56
2023/09/10 09:07:41;;;;;;;;;;;;;;;27.17;33.88;95597.03;5095189;28;1044;-56
2023/09/10 09:10:08;;;;;;;;;;;;;;;27.26;33.33;95604.59;5095453;28;977;-56
2023/09/10 09:12:35;;;;;;;;;;;;;;;27.32;33.07;95608.22;5095352;28;1040;-56
2023/09/10 09:15:02;;;;;;;;;;;;;;;27.40;31.87;95606.94;5077004;28;1096;-56
2023/09/10 09:17:28;;;;;;;;;;;;;;;27.50;33.40;95587.00;5095064;28;1906;-56
2023/09/10 09:19:57;;;;;;;;;;;;;;;27.51;33.49;95594.16;5094930;28;1120;-57
2023/09/10 09:22:25;;;;;;;;;;;;;;;27.58;32.99;95590.13;5095089;28;1049;-57
2023/09/10 09:24:51;;;;;;;;;;;;;;;27.55;33.68;95587.91;5094976;28;973;-57
2023/09/10 09:27:17;;;;;;;;;;;;;;;27.30;33.67;95587.59;5095007;28;1040;-57
2023/09/10 09:29:44;;;;;;;;;;;;;;;27.40;34.88;95577.56;5094829;28;1092;-57
2023/09/10 09:32:10;;;;;;;;;;;;;;;27.64;34.44;95571.78;5094887;28;1057;-57
2023/09/10 09:34:35;;;;;;;;;;;;;;;27.65;33.69;95566.03;5094871;28;1052;-58
2023/09/10 09:37:02;;;;;;;;;;;;;;;27.60;33.94;95570.63;5094634;28;1902;-56
2023/09/10 09:39:29;;;;;;;;;;;;;;;27.61;33.71;95566.81;5094484;28;1028;-56
2023/09/10 09:41:55;;;;;;;;;;;;;;;27.74;32.15;95573.81;5094439;28;1080;-57
2023/09/10 09:44:21;;;;;;;;;;;;;;;27.80;33.27;95565.34;5094617;28;1041;-57
2023/09/10 09:46:47;;;;;;;;;;;;;;;27.74;31.99;95566.41;5093989;28;953;-57
2023/09/10 09:49:13;;;;;;;;;;;;;;;27.77;32.21;95557.63;5094264;28;1037;-56
2023/09/10 09:51:40;;;;;;;;;;;;;;;28.01;31.90;95547.16;5094409;28;1045;-57
2023/09/10 09:54:07;;;;;;;;;;;;;;;28.27;31.33;95547.38;5104257;28;1100;-57
2023/09/10 09:56:33;;;;;;;;;;;;;;;28.47;32.03;95543.13;5114760;28;1988;-56
2023/09/10 09:59:00;;;;;;;;;;;;;;;28.54;32.04;95547.31;5126510;27;1327;-57
2023/09/10 10:01:26;;;;;;;;;;;;;;;28.49;32.50;95532.66;5135285;27;1026;-57
2023/09/10 10:03:52;;;;;;;;;;;;;;;28.40;31.70;95535.94;5135299;27;1036;-57
2023/09/10 10:06:18;;;;;;;;;;;;;;;28.52;31.14;95527.50;5135145;27;1046;-57
2023/09/10 10:08:48;;;;;;;;;;;;;;;28.62;32.06;95529.47;5134982;27;1035;-57
2023/09/10 10:11:33;;;;;;;;;;;;;;;28.41;31.51;95526.56;5134885;27;1103;-57
2023/09/10 10:13:59;;;;;;;;;;;;;;;28.36;32.05;95528.47;5135203;27;987;-57
2023/09/10 10:16:29;;;;;;;;;;;;;;;28.41;32.54;95520.25;5134985;27;1902;-57
2023/09/10 10:18:55;;;;;;;;;;;;;;;28.18;32.42;95527.78;5134829;27;1028;-56
2023/09/10 10:21:22;;;;;;;;;;;;;;;28.07;32.73;95520.56;5134935;27;1031;-56
2023/09/10 10:23:48;;;;;;;;;;;;;;;28.15;31.90;95520.09;5135024;27;1051;-56
2023/09/10 10:26:15;;;;;;;;;;;;;;;28.15;31.96;95508.25;5134531;27;1039;-56
2023/09/10 10:28:43;;;;;;;;;;;;;;;28.22;32.17;95512.41;5134947;27;977;-57
2023/09/10 10:31:15;;;;;;;;;;;;;;;28.31;32.72;95509.19;5134898;27;1025;-57
2023/09/10 10:33:54;;;;;;;;;;;;;;;28.35;31.60;95505.63;5134806;27;1325;-57
2023/09/10 10:36:39;;;;;;;;;;;;;;;28.33;32.50;95509.75;5134524;27;1913;-56
2023/09/10 10:39:08;;;;;;;;;;;;;;;28.38;32.91;95505.13;5134766;27;973;-57
2023/09/10 10:41:36;;;;;;;;;;;;;;;28.18;29.90;95507.72;5134569;27;1052;-57
2023/09/10 10:44:13;;;;;;;;;;;;;;;28.39;31.52;95511.44;5134563;27;1040;-57
2023/09/10 10:46:41;;;;;;;;;;;;;;;28.51;32.83;95494.72;5134479;27;1047;-57
2023/09/10 10:49:07;;;;;;;;;;;;;;;28.56;32.62;95503.06;5134447;27;1037;-56
2023/09/10 10:51:37;;;;;;;;;;;;;;;28.54;32.28;95495.06;5134514;27;1087;-57
2023/09/10 10:54:03;;;;;;;;;;;;;;;28.50;32.40;95491.16;5123971;27;1130;-56
2023/09/10 10:56:30;;;;;;;;;;;;;;;28.61;32.69;95492.09;5113543;28;1909;-57
2023/09/10 10:58:56;;;;;;;;;;;;;;;28.62;31.96;95483.53;5105579;28;1327;-57
2023/09/10 11:01:22;;;;;;;;;;;;;;;28.57;31.90;95486.28;5100312;28;965;-57
2023/09/10 11:03:49;;;;;;;;;;;;;;;28.70;32.59;95486.88;5100322;28;1087;-57
2023/09/10 11:06:15;;;;;;;;;;;;;;;28.57;31.29;95480.78;5099929;28;942;-57
2023/09/10 11:08:41;;;;;;;;;;;;;;;28.59;31.60;95470.34;5100001;28;1029;-57
2023/09/10 11:11:30;;;;;;;;;;;;;;;28.68;31.92;95480.81;5117746;27;2499;-57
2023/09/10 11:14:01;;;;;;;;;;;;;;;28.68;30.46;95464.31;5140940;27;1264;-57
2023/09/10 11:16:28;;;;;;;;;;;;;;;28.66;30.61;95475.59;5140991;27;1991;-57
2023/09/10 11:18:54;;;;;;;;;;;;;;;28.40;32.02;95469.94;5141528;27;984;-57
2023/09/10 11:21:20;;;;;;;;;;;;;;;28.24;31.60;95465.44;5140806;27;1095;-57
2023/09/10 11:23:46;;;;;;;;;;;;;;;28.35;31.69;95460.81;5141247;27;1003;-56
2023/09/10 11:26:12;;;;;;;;;;;;;;;28.42;30.43;95456.75;5141283;27;1035;-57
2023/09/10 11:28:53;;;;;;;;;;;;;;;28.51;31.91;95446.03;5140864;27;1071;-57
2023/09/10 11:31:33;;;;;;;;;;;;;;;28.77;31.55;95427.75;5140757;27;1095;-57
2023/09/10 11:34:14;;;;;;;;;;;;;;;29.15;31.57;95441.41;5141027;27;952;-57
2023/09/10 11:36:44;;;;;;;;;;;;;;;29.12;31.85;95439.16;5140746;27;1987;-56
2023/09/10 11:39:11;;;;;;;;;;;;;;;29.06;30.69;95445.75;5140777;27;952;-57
2023/09/10 11:41:37;;;;;;;;;;;;;;;28.76;31.51;95442.63;5140688;27;1076;-57
2023/09/10 11:44:03;;;;;;;;;;;;;;;28.34;31.82;95445.41;5140993;27;1008;-57
2023/09/10 11:46:29;;;;;;;;;;;;;;;28.09;32.59;95430.41;5140765;27;999;-57
2023/09/10 11:48:55;;;;;;;;;;;;;;;28.16;33.11;95428.25;5140903;27;1044;-57
2023/09/10 11:51:21;;;;;;;;;;;;;;;27.98;32.98;95428.69;5140534;27;1968;-58
2023/09/10 11:53:47;;;;;;;;;;;;;;;27.73;32.96;95416.41;5148105;27;1229;-57
2023/09/10 11:56:13;;;;;;;;;;;;;;;27.78;33.08;95413.69;5161174;27;1992;-58
2023/09/10 11:58:42;;;;;;;;;;;;;;;27.90;32.95;95405.28;5152260;27;1263;-57
2023/09/10 12:01:09;;;;;;;;;;;;;;;27.99;33.98;95405.63;5140807;27;1031;-58
2023/09/10 12:03:35;;;;;;;;;;;;;;;28.06;32.91;95400.72;5140833;27;1063;-57
2023/09/10 12:06:02;;;;;;;;;;;;;;;28.11;32.67;95403.50;5140603;27;970;-57
2023/09/10 12:08:28;;;;;;;;;;;;;;;27.87;33.14;95399.47;5140662;27;1049;-57
2023/09/10 12:10:58;;;;;;;;;;;;;;;27.61;33.83;95399.28;5137647;27;1000;-57
2023/09/10 12:13:24;;;;;;;;;;;;;;;27.52;34.35;95392.63;5137382;27;1056;-58
2023/09/10 12:15:52;;;;;;;;;;;;;;;27.44;34.53;95394.75;5137250;27;1937;-57
2023/09/10 12:18:18;;;;;;;;;;;;;;;27.23;34.58;95395.63;5137324;27;1037;-57
2023/09/10 12:20:45;;;;;;;;;;;;;;;26.99;34.42;95400.59;5137027;27;973;-57
2023/09/10 12:23:10;;;;;;;;;;;;;;;26.93;35.02;95393.41;5137014;27;1019;-58
2023/09/10 12:25:37;;;;;;;;;;;;;;;26.78;33.91;95405.88;5136912;27;1013;-57
2023/09/10 12:28:03;;;;;;;;;;;;;;;26.93;34.05;95396.97;5136938;27;1099;-57
2023/09/10 12:30:29;;;;;;;;;;;;;;;26.96;34.79;95396.47;5136794;27;1880;-57
2023/09/10 12:32:55;;;;;;;;;;;;;;;27.05;35.00;95383.94;5137020;27;1055;-58
2023/09/10 12:35:21;;;;;;;;;;;;;;;27.38;32.92;95390.31;5137342;27;1002;-57
2023/09/10 12:37:49;;;;;;;;;;;;;;;27.73;33.69;95388.94;5137006;27;1921;-57
2023/09/10 12:40:15;;;;;;;;;;;;;;;27.99;34.79;95392.72;5136587;27;1051;-57
2023/09/10 12:42:41;;;;;;;;;;;;;;;28.02;33.28;95388.59;5136997;27;1021;-58
2023/09/10 12:45:07;;;;;;;;;;;;;;;27.73;34.53;95388.94;5136571;27;1031;-57
2023/09/10 12:47:34;;;;;;;;;;;;;;;27.56;35.09;95385.50;5136327;27;1020;-58
2023/09/10 12:50:01;;;;;;;;;;;;;;;27.21;33.93;95392.31;5136685;27;1063;-58
2023/09/10 12:52:27;;;;;;;;;;;;;;;27.01;34.23;95384.72;5136632;27;1065;-58
2023/09/10 12:54:53;;;;;;;;;;;;;;;26.95;34.62;95389.31;5136151;27;1103;-58
2023/09/10 12:57:20;;;;;;;;;;;;;;;27.08;34.24;95388.91;5136362;27;1910;-57
2023/09/10 12:59:51;;;;;;;;;;;;;;;27.24;34.50;95380.81;5136600;27;1256;-57